Terminal Aerodrome Forecast
Issued by NWS

Home | Current Version | Previous Version | Graphics & Text | Print | Product List | Glossary On
Versions: 1 2 3 4 5 6 7 8 9 10 11 12 13 14 15 16 17 18 19 20 21 22 23 24 25 26 27 28 29 30 31 32 33 34
670
FTUS43 KGRB 252318 AAA
TAFRHI
TAF AMD
KRHI 252318Z 2523/2618 25009G16KT P6SM SCT020 BKN040
      TEMPO 2600/2604 BKN020
     FM260400 25009G16KT P6SM BKN015 OVC035
      TEMPO 2611/2615 4SM -SHRA BR BKN007
     FM261500 27015G25KT P6SM VCSH BKN015 OVC035=

USA.gov is the U.S. government's official web portal to all federal, state and local government web resources and services.